Weather at Aden Adde International Airport

Public forecast

Using degrees Celsius for public forecast. Weather courtesy of forecast.io.

Current aviation weather report (METAR) for Aden Adde International Airport

Report is more than 6 hours old.

2022/11/14 14:00 (retrieved 2 years ago)

HCMM 141400Z 13011KT 9999 FEW022 28/25 Q1011

Closest aviation forecast (TAF) to Aden Adde International Airport

Forecast is more than 12 hours old.

Closest forecast is Eldoret International Airport, 611.9 nm (1,133.2 km) W.

2023/02/22 18:54 (retrieved 1 year ago)

TAF TAF HKEL 221700Z 2218/2324 12005KT 9999 FEW025 BECMG 2300/2304 CAVOK BECMG 2308/2311 9999 FEW025